Savannah, Tennessee
Current Conditions -  °F | °C
As of 2:55 PM on Tuesday 21 Oct 2014 (Local Time) from KSNH Reporting Station
Clear Clear  
Wind Chill: 73°   Ceiling: Unl
Heat Index: 73°   Visibility: 10mi
Dew Point: 46°   Wind: 12mph
Humidity: 38%   Direction: 360°N
Pressure: 30.04"   Gusts: NA
Location:  35.22°N, 88.24°W
Report Text: KSNH 211955Z AUTO 36010KT 10SM CLR 23/08 A3004 RMK
Loading
Personal Weather Stations






























Interactive Weather Map
Tropical Storm Tracking
New forecast layout! Learn more

10-Day Weather Forecast

Advertisements
Track Severe Weather on mobile